createdAt,value
2023-03-07T00:26:00.597Z,12.40
2023-03-07T00:29:13.867Z,15.05
2023-03-07T00:41:43.028Z,10.82
2023-03-07T00:45:07.117Z,13.75
2023-03-07T00:50:27.172Z,11.80
2023-03-07T01:48:20.455Z,6.28
2023-03-07T01:51:39.640Z,10.18
2023-03-07T01:55:36.475Z,7.32
2023-03-07T02:04:28.035Z,5.30
2023-03-07T02:21:16.890Z,10.60
2023-03-07T02:28:27.156Z,10.80
2023-03-07T02:52:30.683Z,5.30
2023-03-07T03:30:51.536Z,5.57
2023-03-07T03:42:02.833Z,7.90
2023-03-07T03:52:29.688Z,6.70
2023-03-07T03:56:09.555Z,5.75
2023-03-07T03:59:57.749Z,10.45
2023-03-07T04:03:46.093Z,10.13
2023-03-07T04:10:35.569Z,10.55
2023-03-07T04:14:22.051Z,6.90
2023-03-07T04:16:49.051Z,7.63
2023-03-07T04:20:15.190Z,9.20
2023-03-07T04:23:36.351Z,7.25
2023-03-07T04:26:56.623Z,7.60
2023-03-07T04:36:41.566Z,7.78
2023-03-07T04:47:11.944Z,6.18
2023-03-07T04:50:10.800Z,7.45
2023-03-07T04:53:35.048Z,3.30
2023-03-07T04:57:03.730Z,6.38
2023-03-07T04:59:54.823Z,5.00
2023-03-07T05:02:47.839Z,6.55
2023-03-07T05:05:15.493Z,3.33
2023-03-07T05:08:29.208Z,6.68
2023-03-07T05:11:40.244Z,6.10
2023-03-07T05:21:59.106Z,2.40
2023-03-07T05:29:13.435Z,3.47
2023-03-07T06:03:52.348Z,3.00
2023-03-07T06:10:06.769Z,5.22
2023-03-07T06:44:30.127Z,3.78
2023-03-07T06:47:40.479Z,5.00
2023-03-07T07:08:48.726Z,4.72
2023-03-07T07:11:53.596Z,6.05
2023-03-07T07:15:09.299Z,3.90
2023-03-07T07:18:03.809Z,4.30
2023-03-07T07:23:59.071Z,5.45
2023-03-07T07:27:20.634Z,7.78
2023-03-07T07:34:24.224Z,5.97
2023-03-07T07:37:20.715Z,4.88
2023-03-07T07:39:55.795Z,6.45
2023-03-07T07:46:30.414Z,4.88
2023-03-07T07:48:59.405Z,4.13
2023-03-07T07:55:10.494Z,4.65
2023-03-07T07:58:23.715Z,4.85
2023-03-07T08:04:13.530Z,7.03
2023-03-07T08:06:40.047Z,6.85
2023-03-07T08:09:35.611Z,7.68
2023-03-07T09:29:09.343Z,5.75
2023-03-07T10:05:47.968Z,3.30
2023-03-07T11:16:27.517Z,3.72
2023-03-07T11:18:54.785Z,2.30
2023-03-07T11:43:43.509Z,4.85
2023-03-07T11:51:07.944Z,4.20
2023-03-07T11:57:13.416Z,4.70
2023-03-07T12:03:08.131Z,2.20
2023-03-07T12:10:26.154Z,1.60
2023-03-07T12:27:18.415Z,2.50
2023-03-07T12:29:49.074Z,3.17
2023-03-07T12:36:40.420Z,4.22
2023-03-07T12:43:20.963Z,3.03
2023-03-07T15:16:46.528Z,4.20
2023-03-07T16:01:57.936Z,2.63
2023-03-07T16:09:04.933Z,5.88
2023-03-07T16:21:17.515Z,3.38
2023-03-07T16:27:20.423Z,3.00
2023-03-07T16:31:05.269Z,3.72
2023-03-07T17:01:34.718Z,2.83
2023-03-07T17:04:46.970Z,4.40
2023-03-07T17:21:02.477Z,2.88
2023-03-07T17:26:59.921Z,4.55
2023-03-07T17:29:39.863Z,3.40
2023-03-07T17:32:06.575Z,4.43
2023-03-07T17:34:35.178Z,6.65
2023-03-07T17:37:15.648Z,4.97
2023-03-07T17:39:48.400Z,4.95
2023-03-07T17:42:23.926Z,4.28
2023-03-07T17:45:40.963Z,3.40
2023-03-07T18:08:34.955Z,3.45
2023-03-07T18:11:27.088Z,6.15
2023-03-07T18:18:09.298Z,6.88
2023-03-07T18:23:28.954Z,4.97
2023-03-07T18:26:59.028Z,3.45
2023-03-07T18:32:40.272Z,5.25
2023-03-07T18:35:07.848Z,5.65
2023-03-07T18:37:34.306Z,5.93
2023-03-07T18:40:00.823Z,5.32
2023-03-07T18:42:27.419Z,6.32
2023-03-07T18:44:53.911Z,4.50
2023-03-07T18:47:29.303Z,3.83
2023-03-07T18:49:57.576Z,6.22
2023-03-07T18:52:23.972Z,4.82
2023-03-07T18:54:55.869Z,7.30
2023-03-07T18:57:22.244Z,5.65
2023-03-07T18:59:50.867Z,6.82
2023-03-07T19:05:18.822Z,12.63
2023-03-07T19:07:48.485Z,7.50
2023-03-07T19:11:04.617Z,11.93
2023-03-07T19:13:06.735Z,14.68
2023-03-07T19:15:33.953Z,13.13
2023-03-07T19:18:00.476Z,16.63
2023-03-07T19:20:48.547Z,14.82
2023-03-07T19:23:15.997Z,13.70
2023-03-07T19:25:42.357Z,12.95
2023-03-07T19:28:08.774Z,12.07
2023-03-07T19:30:36.968Z,7.72
2023-03-07T19:33:03.481Z,7.95
2023-03-07T19:36:16.538Z,9.23
2023-03-07T19:39:51.286Z,7.93
2023-03-07T19:42:40.813Z,8.07
2023-03-07T19:45:10.611Z,8.63
2023-03-07T19:47:37.043Z,6.95
2023-03-07T19:50:03.765Z,9.27
2023-03-07T19:52:33.840Z,6.68
2023-03-07T19:55:11.791Z,8.98
2023-03-07T19:57:42.820Z,7.43
2023-03-07T20:00:09.732Z,8.10
2023-03-07T20:02:50.087Z,10.60
2023-03-07T20:08:15.508Z,7.50
2023-03-07T20:14:30.161Z,7.00
2023-03-07T20:26:11.007Z,6.70
2023-03-07T20:28:38.179Z,5.60
2023-03-07T20:31:08.718Z,9.68
2023-03-07T20:33:36.539Z,7.55
2023-03-07T20:36:06.105Z,9.77
2023-03-07T20:38:34.026Z,7.40
2023-03-07T20:41:08.460Z,10.02
2023-03-07T20:43:35.025Z,8.65
2023-03-07T20:46:12.668Z,7.88
2023-03-07T20:48:49.228Z,7.97
2023-03-07T20:51:20.857Z,8.43
2023-03-07T20:53:52.778Z,5.68
2023-03-07T20:56:20.281Z,6.45
2023-03-07T21:04:35.640Z,4.82
2023-03-07T21:07:02.401Z,7.45
2023-03-07T21:09:31.350Z,4.93
2023-03-07T21:11:57.849Z,5.63
2023-03-07T21:14:26.188Z,5.05
2023-03-07T21:16:56.151Z,6.20
2023-03-07T21:19:30.860Z,6.82
2023-03-07T21:21:58.891Z,7.63
2023-03-07T21:24:25.332Z,4.95
2023-03-07T21:26:53.391Z,4.72
2023-03-07T21:29:19.827Z,4.13
2023-03-07T21:31:46.383Z,6.35
2023-03-07T21:34:26.939Z,4.03
2023-03-07T21:36:56.990Z,5.03
2023-03-07T21:39:39.557Z,5.95
2023-03-07T21:42:06.270Z,7.93
2023-03-07T21:44:33.462Z,10.30
2023-03-07T21:46:59.890Z,6.32
2023-03-07T21:49:26.280Z,5.47
2023-03-07T21:52:39.745Z,6.15
2023-03-07T21:58:16.068Z,4.85
2023-03-07T22:01:57.083Z,5.80
2023-03-07T22:04:29.941Z,6.70
2023-03-07T22:14:00.539Z,8.73
2023-03-07T22:16:27.253Z,9.27
2023-03-07T22:18:59.996Z,10.43
2023-03-07T22:21:47.004Z,9.70
2023-03-07T22:24:42.212Z,12.25
2023-03-07T22:29:38.171Z,6.47
2023-03-07T22:32:05.098Z,7.57
2023-03-07T22:34:31.724Z,6.93
2023-03-07T22:36:58.175Z,6.57
2023-03-07T22:39:24.758Z,8.25
2023-03-07T22:41:51.194Z,6.05
2023-03-07T22:44:20.185Z,4.55
2023-03-07T22:46:54.302Z,9.23
2023-03-07T22:56:09.091Z,6.07
2023-03-07T22:58:45.012Z,7.45
2023-03-07T23:01:13.515Z,5.53
2023-03-07T23:03:40.486Z,5.00
2023-03-07T23:06:24.610Z,5.47
2023-03-07T23:08:59.626Z,4.68
2023-03-07T23:11:40.548Z,7.25
2023-03-07T23:14:09.751Z,7.07
2023-03-07T23:16:39.495Z,10.23
2023-03-07T23:19:09.197Z,18.17
2023-03-07T23:21:38.931Z,21.98
2023-03-07T23:24:09.209Z,20.98
2023-03-07T23:27:04.177Z,8.20
2023-03-07T23:29:41.683Z,6.40
2023-03-07T23:32:37.748Z,6.13
2023-03-07T23:35:29.669Z,4.53
2023-03-07T23:38:04.411Z,3.95
2023-03-07T23:43:22.164Z,10.18
2023-03-07T23:49:32.688Z,5.90
2023-03-07T23:52:26.025Z,7.28
2023-03-07T23:55:04.915Z,7.00
2023-03-07T23:57:52.090Z,7.75
